Weather observations for the past three days for
Bethel, Bethel Airport
Imperial (Metric)
Date Time (akdt) Wind (mph) Vis. (mi.) Weather Sky Cond. Temperature (ºF) Relative Humidity Wind Chill (°F) Heat Index (°F) Pressure Precipitation (in)
Air Dwpt 6 hour altimeter (in) sea level (mb) 1 hr 3 hr 6 hr
Max. Min.
06 16:53 W 8 10.00 Mostly Cloudy BKN020 BKN080 32 21.9 66% 25 30.1 1019.7
06 15:53 NW 6 10.00 Partly Cloudy SCT021 30.9 21 32 25 67% 26 30.11 1019.8
06 14:53 NW 7 10.00 Overcast OVC018 28.9 19.9 69% 23 30.11 1019.8
06 13:53 Vrbl 3 10.00 Overcast OVC016 28 19.9 72% 30.12 1020.1
06 11:53 Calm 10.00 Overcast OVC013 26.1 21 81% 30.11 1019.9
06 10:53 NW 7 10.00 Overcast OVC012 25 19.9 81% 18 30.11 1019.9
06 09:53 NW 8 10.00 Overcast OVC011 25 21 26.1 25 85% 17 30.11 1019.8
06 08:53 W 5 10.00 Overcast OVC010 25 21 85% 20 30.1 1019.5
06 07:53 Calm 10.00 Overcast OVC010 25 21 85% 30.09 1019.2
06 06:53 W 7 10.00 Overcast OVC010 25 21.9 88% 18 30.08 1018.9
06 05:53 NW 5 10.00 Overcast OVC011 26.1 21.9 84% 21 30.08 1018.7
06 04:53 NW 8 10.00 Overcast OVC010 26.1 21.9 84% 18 30.07 1018.4
06 03:53 NW 7 10.00 Overcast OVC011 26.1 21.9 32 26.1 84% 19 30.06 1018.1
06 02:53 NW 10 10.00 Overcast OVC012 26.1 21.9 84% 17 30.06 1018.0
06 01:53 NW 9 10.00 Overcast OVC012 27 21.9 81% 19 30.05 1017.8
06 00:53 NW 14 10.00 Mostly Cloudy BKN012 26.1 21.9 84% 15 30.04 1017.5
05 23:53 NW 10 10.00 Fair CLR 27 23 85% 18 30.03 1017.2
05 22:53 NW 16 10.00 Fair CLR 28.9 24.1 82% 18 30 1016.2
05 21:53 NW 17 10.00 Fair CLR 32 25 37.9 32 75% 22 30 1015.9
05 20:53 NW 16 10.00 Fair CLR 34 25 70% 24 29.98 1015.4
05 19:53 NW 18 G 25 10.00 Fair CLR 36 25 64% 26 29.97 1015.1
05 18:53 NW 17 G 25 10.00 A Few Clouds FEW024 36 25 64% 27 29.96 1014.9
05 17:53 NW 20 G 26 10.00 Fair CLR 37 25 62% 27 29.95 1014.3
05 16:53 NW 17 G 26 10.00 Fair CLR 37 24.1 59% 28 29.94 1014.1
05 15:53 NW 22 G 32 10.00 Fair and Breezy CLR 37 25 37 30 62% 27 29.93 1013.8
05 14:53 NW 20 G 28 10.00 Fair CLR 36 25 64% 26 29.94 1013.9
05 13:53 NW 22 G 31 10.00 Fair and Breezy CLR 36 25 64% 25 29.92 1013.3
05 12:53 NW 20 G 29 10.00 Fair CLR 34 24.1 67% 23 29.92 1013.3
05 11:53 NW 22 G 33 10.00 Fair and Breezy CLR 32 25 75% 20 29.9 1012.7
05 10:53 NW 22 G 31 10.00 Fair and Breezy CLR 32 25 75% 20 29.88 1012.2
05 09:53 NW 20 G 29 10.00 Fair CLR 30 24.1 30 27 79% 18 29.87 1011.7
05 08:53 NW 20 G 28 10.00 Fair CLR 28 24.1 85% 16 29.85 1011.0
05 07:53 NW 21 G 31 10.00 Mostly Cloudy and Breezy BKN060 27 24.1 89% 14 29.83 1010.3
05 06:53 NW 21 G 30 10.00 A Few Clouds and Breezy FEW060 27 24.1 89% 14 29.81 1009.5
05 05:53 NW 18 10.00 Overcast OVC065 28.9 26.1 89% 17 29.79 1008.8
05 04:53 NW 18 10.00 Overcast OVC060 28.9 26.1 89% 17 29.77 1008.3
05 03:53 NW 20 10.00 Mostly Cloudy BKN044 BKN060 30 26.1 35.1 28.9 85% 18 29.76 1008.0
05 02:53 NW 16 10.00 Mostly Cloudy BKN045 BKN055 30 26.1 85% 19 29.76 1007.8
05 01:53 NW 18 G 29 10.00 Overcast OVC039 30.9 27 85% 20 29.75 1007.7
05 00:53 NW 18 G 29 10.00 Fair CLR 30 27 88% 19 29.75 1007.6
04 23:53 NW 20 10.00 Fair CLR 30.9 26.1 82% 20 29.75 1007.6
04 22:53 NW 20 10.00 A Few Clouds FEW055 33.1 26.1 75% 22 29.75 1007.5
04 21:53 NW 21 G 30 10.00 Fair and Breezy CLR 35.1 27 42.1 35.1 72% 25 29.74 1007.4
04 20:53 NW 21 G 33 10.00 Fair and Breezy CLR 37 27 67% 27 29.75 1007.5
04 19:53 N 28 G 35 10.00 Fair and Windy CLR 39 27 62% 28 29.76 1007.9
04 18:53 N 23 G 33 10.00 Fair and Breezy CLR 41 28 60% 32 29.76 1008.0
04 17:53 N 25 10.00 Fair and Breezy CLR 41 28 60% 31 29.77 1008.2
04 16:53 N 26 G 32 10.00 Fair and Windy CLR 42.1 28 58% 33 29.78 1008.8
04 15:53 N 23 G 32 10.00 Fair and Breezy CLR 41 28.9 41 30 62% 32 29.81 1009.7
04 14:53 N 24 G 32 10.00 Fair and Breezy CLR 39.9 28 63% 30 29.84 1010.5
04 13:53 N 23 G 31 10.00 Fair and Breezy CLR 39 28 65% 29 29.87 1011.6
04 12:53 N 21 10.00 Fair and Breezy CLR 37.9 28.9 70% 28 29.89 1012.4
04 11:53 N 21 10.00 Fair and Breezy CLR 35.1 28 76% 25 29.92 1013.3
04 10:53 N 18 10.00 Fair CLR 33.1 27 78% 23 29.94 1014.0
04 09:53 N 17 10.00 Fair CLR 30 26.1 30 25 85% 19 29.96 1014.6
04 08:53 N 16 10.00 Fair CLR 27 25 92% 16 29.98 1015.2
04 07:53 N 16 10.00 Fair CLR 26.1 24.1 92% 14 30 1015.9
04 06:53 NW 14 10.00 Fair CLR 25 23 92% 14 30.01 1016.5
04 04:53 NW 13 10.00 Fair CLR 25 23 92% 14 30.03 1017.3
04 03:53 NW 13 10.00 Fair CLR 26.1 24.1 34 26.1 92% 16 30.04 1017.7
04 02:53 NW 12 10.00 Fair CLR 27 24.1 89% 17 30.06 1018.2
04 01:53 NW 12 10.00 Fair CLR 28 25 88% 19 30.07 1018.6
04 00:53 NW 14 10.00 Fair CLR 28.9 25 85% 19 30.08 1018.8
03 23:53 NW 13 10.00 Fair CLR 28.9 26.1 89% 19 30.08 1019.0
03 22:53 NW 13 10.00 Fair CLR 30.9 27 85% 22 30.08 1018.9
03 21:53 NW 16 10.00 Fair CLR 34 28 37.9 32 79% 24 30.08 1018.9
03 20:53 N 14 G 28 10.00 Fair CLR 37.9 25 60% 30 30.09 1019.0
03 19:53 N 9 10.00 Fair CLR 37.9 27 65% 32 30.09 1019.0
03 18:53 N 9 10.00 Fair CLR 37 28 70% 31 30.1 1019.3
Date Time (akdt) Wind (mph) Vis. (mi.) Weather Sky Cond. Air Dwpt Max. Min. Relative Humidity Wind Chill (°F) Heat Index (°F) altimeter (in) sea level (mb) 1 hr 3 hr 6 hr
6 hour
Temperature (ºF) Pressure Precipitation (in)